sensor_id;sensor_type;location;lat;lon;timestamp;temperature;humidity
64634;DHT22;51043;52.406;9.690;2023-04-25T00:01:16;7.50;99.90
64634;DHT22;51043;52.406;9.690;2023-04-25T00:03:44;7.50;99.90
64634;DHT22;51043;52.406;9.690;2023-04-25T00:06:14;7.50;99.90
64634;DHT22;51043;52.406;9.690;2023-04-25T00:08:42;7.50;99.90
64634;DHT22;51043;52.406;9.690;2023-04-25T00:11:11;7.50;99.90
64634;DHT22;51043;52.406;9.690;2023-04-25T00:13:39;7.50;99.90
64634;DHT22;51043;52.406;9.690;2023-04-25T00:16:08;7.50;99.90
64634;DHT22;51043;52.406;9.690;2023-04-25T00:18:37;7.50;99.90
64634;DHT22;51043;52.406;9.690;2023-04-25T00:21:05;7.50;99.90
64634;DHT22;51043;52.406;9.690;2023-04-25T00:23:37;7.50;99.90
64634;DHT22;51043;52.406;9.690;2023-04-25T00:26:05;7.60;99.90
64634;DHT22;51043;52.406;9.690;2023-04-25T00:28:34;7.60;99.90
64634;DHT22;51043;52.406;9.690;2023-04-25T00:31:03;7.70;99.90
64634;DHT22;51043;52.406;9.690;2023-04-25T00:33:31;7.60;99.90
64634;DHT22;51043;52.406;9.690;2023-04-25T00:36:02;7.60;99.90
64634;DHT22;51043;52.406;9.690;2023-04-25T00:38:30;7.50;99.90
64634;DHT22;51043;52.406;9.690;2023-04-25T00:41:05;7.50;99.90
64634;DHT22;51043;52.406;9.690;2023-04-25T00:43:36;7.50;99.90
64634;DHT22;51043;52.406;9.690;2023-04-25T00:46:04;7.50;99.90
64634;DHT22;51043;52.406;9.690;2023-04-25T00:48:32;7.50;99.90
64634;DHT22;51043;52.406;9.690;2023-04-25T00:51:01;7.50;99.90
64634;DHT22;51043;52.406;9.690;2023-04-25T00:53:30;7.50;99.90
64634;DHT22;51043;52.406;9.690;2023-04-25T00:56:03;7.60;99.90
64634;DHT22;51043;52.406;9.690;2023-04-25T00:58:31;7.50;99.90
64634;DHT22;51043;52.406;9.690;2023-04-25T01:01:04;7.50;99.90
64634;DHT22;51043;52.406;9.690;2023-04-25T01:03:34;7.50;99.90
64634;DHT22;51043;52.406;9.690;2023-04-25T01:06:08;7.40;99.90
64634;DHT22;51043;52.406;9.690;2023-04-25T01:08:37;7.50;99.90
64634;DHT22;51043;52.406;9.690;2023-04-25T01:11:06;7.50;99.90
64634;DHT22;51043;52.406;9.690;2023-04-25T01:13:35;7.40;99.90
64634;DHT22;51043;52.406;9.690;2023-04-25T01:16:08;7.50;99.90
64634;DHT22;51043;52.406;9.690;2023-04-25T01:18:38;7.40;99.90
64634;DHT22;51043;52.406;9.690;2023-04-25T01:21:09;7.30;99.90
64634;DHT22;51043;52.406;9.690;2023-04-25T01:23:38;7.30;99.90
64634;DHT22;51043;52.406;9.690;2023-04-25T01:26:06;7.40;99.90
64634;DHT22;51043;52.406;9.690;2023-04-25T01:28:36;7.40;99.90
64634;DHT22;51043;52.406;9.690;2023-04-25T01:31:06;7.40;99.90
64634;DHT22;51043;52.406;9.690;2023-04-25T01:33:34;7.40;99.90
64634;DHT22;51043;52.406;9.690;2023-04-25T01:36:03;7.40;99.90
64634;DHT22;51043;52.406;9.690;2023-04-25T01:38:35;7.40;99.90
64634;DHT22;51043;52.406;9.690;2023-04-25T01:41:05;7.40;99.90
64634;DHT22;51043;52.406;9.690;2023-04-25T01:43:33;7.40;99.90
64634;DHT22;51043;52.406;9.690;2023-04-25T01:46:02;7.40;99.90
64634;DHT22;51043;52.406;9.690;2023-04-25T01:48:30;7.40;99.90
64634;DHT22;51043;52.406;9.690;2023-04-25T01:50:58;7.40;99.90
64634;DHT22;51043;52.406;9.690;2023-04-25T01:53:28;7.40;99.90
64634;DHT22;51043;52.406;9.690;2023-04-25T01:55:58;7.40;99.90
64634;DHT22;51043;52.406;9.690;2023-04-25T01:58:31;7.40;99.90
64634;DHT22;51043;52.406;9.690;2023-04-25T02:01:08;7.40;99.90
64634;DHT22;51043;52.406;9.690;2023-04-25T02:03:43;7.30;99.90
64634;DHT22;51043;52.406;9.690;2023-04-25T02:06:22;7.20;99.90
64634;DHT22;51043;52.406;9.690;2023-04-25T02:08:52;7.00;99.90
64634;DHT22;51043;52.406;9.690;2023-04-25T02:11:22;6.90;99.90
64634;DHT22;51043;52.406;9.690;2023-04-25T02:14:08;6.90;99.90
64634;DHT22;51043;52.406;9.690;2023-04-25T02:16:58;6.80;99.90
64634;DHT22;51043;52.406;9.690;2023-04-25T02:19:29;6.70;99.90
64634;DHT22;51043;52.406;9.690;2023-04-25T02:21:57;6.70;99.90
64634;DHT22;51043;52.406;9.690;2023-04-25T02:24:26;6.70;99.90
64634;DHT22;51043;52.406;9.690;2023-04-25T02:27:04;6.70;99.90
64634;DHT22;51043;52.406;9.690;2023-04-25T02:29:34;6.60;99.90
64634;DHT22;51043;52.406;9.690;2023-04-25T02:32:02;6.60;99.90
64634;DHT22;51043;52.406;9.690;2023-04-25T02:34:33;6.60;99.90
64634;DHT22;51043;52.406;9.690;2023-04-25T02:37:01;6.60;99.90
64634;DHT22;51043;52.406;9.690;2023-04-25T02:39:32;6.60;99.90
64634;DHT22;51043;52.406;9.690;2023-04-25T02:42:01;6.60;99.90
64634;DHT22;51043;52.406;9.690;2023-04-25T02:44:33;6.60;99.90
64634;DHT22;51043;52.406;9.690;2023-04-25T02:47:01;6.60;99.90
64634;DHT22;51043;52.406;9.690;2023-04-25T02:49:30;6.60;99.90
64634;DHT22;51043;52.406;9.690;2023-04-25T02:51:58;6.60;99.90
64634;DHT22;51043;52.406;9.690;2023-04-25T02:54:26;6.60;99.90
64634;DHT22;51043;52.406;9.690;2023-04-25T02:56:55;6.60;99.90
64634;DHT22;51043;52.406;9.690;2023-04-25T02:59:27;6.60;99.90
64634;DHT22;51043;52.406;9.690;2023-04-25T03:01:56;6.60;99.90
64634;DHT22;51043;52.406;9.690;2023-04-25T03:04:25;6.60;99.90
64634;DHT22;51043;52.406;9.690;2023-04-25T03:06:53;6.50;99.90
64634;DHT22;51043;52.406;9.690;2023-04-25T03:09:24;6.70;99.90
64634;DHT22;51043;52.406;9.690;2023-04-25T03:11:52;6.70;99.90
64634;DHT22;51043;52.406;9.690;2023-04-25T03:14:24;6.60;99.90
64634;DHT22;51043;52.406;9.690;2023-04-25T03:16:52;6.60;99.90
64634;DHT22;51043;52.406;9.690;2023-04-25T03:19:22;6.60;99.90
64634;DHT22;51043;52.406;9.690;2023-04-25T03:21:53;6.60;99.90
64634;DHT22;51043;52.406;9.690;2023-04-25T03:24:22;6.60;99.90
64634;DHT22;51043;52.406;9.690;2023-04-25T03:26:53;6.70;99.90
64634;DHT22;51043;52.406;9.690;2023-04-25T03:29:21;6.60;99.90
64634;DHT22;51043;52.406;9.690;2023-04-25T03:31:54;6.60;99.90
64634;DHT22;51043;52.406;9.690;2023-04-25T03:34:23;6.70;99.90
64634;DHT22;51043;52.406;9.690;2023-04-25T03:36:56;6.70;99.90
64634;DHT22;51043;52.406;9.690;2023-04-25T03:39:25;6.70;99.90
64634;DHT22;51043;52.406;9.690;2023-04-25T03:41:56;6.70;99.90
64634;DHT22;51043;52.406;9.690;2023-04-25T03:44:24;6.70;99.90
64634;DHT22;51043;52.406;9.690;2023-04-25T03:46:53;6.60;99.90
64634;DHT22;51043;52.406;9.690;2023-04-25T03:49:24;6.50;99.90
64634;DHT22;51043;52.406;9.690;2023-04-25T03:51:57;6.60;99.90
64634;DHT22;51043;52.406;9.690;2023-04-25T03:54:26;6.60;99.90
64634;DHT22;51043;52.406;9.690;2023-04-25T03:57:01;6.60;99.90
64634;DHT22;51043;52.406;9.690;2023-04-25T03:59:32;6.60;99.90
64634;DHT22;51043;52.406;9.690;2023-04-25T04:02:00;6.60;99.90
64634;DHT22;51043;52.406;9.690;2023-04-25T04:04:34;6.60;99.90
64634;DHT22;51043;52.406;9.690;2023-04-25T04:07:06;6.60;99.90
64634;DHT22;51043;52.406;9.690;2023-04-25T04:09:36;6.60;99.90
64634;DHT22;51043;52.406;9.690;2023-04-25T04:12:14;6.60;99.90
64634;DHT22;51043;52.406;9.690;2023-04-25T04:14:43;6.60;99.90
64634;DHT22;51043;52.406;9.690;2023-04-25T04:17:11;6.60;99.90
64634;DHT22;51043;52.406;9.690;2023-04-25T04:19:42;6.60;99.90
64634;DHT22;51043;52.406;9.690;2023-04-25T04:22:15;6.60;99.90
64634;DHT22;51043;52.406;9.690;2023-04-25T04:24:43;6.60;99.90
64634;DHT22;51043;52.406;9.690;2023-04-25T04:27:17;6.70;99.90
64634;DHT22;51043;52.406;9.690;2023-04-25T04:29:58;6.60;99.90
64634;DHT22;51043;52.406;9.690;2023-04-25T04:32:31;6.90;99.90
64634;DHT22;51043;52.406;9.690;2023-04-25T04:35:04;6.60;99.90
64634;DHT22;51043;52.406;9.690;2023-04-25T04:37:33;6.60;99.90
64634;DHT22;51043;52.406;9.690;2023-04-25T04:40:02;6.70;99.90
64634;DHT22;51043;52.406;9.690;2023-04-25T04:42:45;6.70;99.90
64634;DHT22;51043;52.406;9.690;2023-04-25T04:45:21;6.70;99.90
64634;DHT22;51043;52.406;9.690;2023-04-25T04:48:05;6.70;99.90
64634;DHT22;51043;52.406;9.690;2023-04-25T04:50:43;6.80;99.90
64634;DHT22;51043;52.406;9.690;2023-04-25T04:53:41;6.80;99.90
64634;DHT22;51043;52.406;9.690;2023-04-25T04:56:18;6.80;99.90
64634;DHT22;51043;52.406;9.690;2023-04-25T04:58:47;6.70;99.90
64634;DHT22;51043;52.406;9.690;2023-04-25T05:01:29;6.80;99.90
64634;DHT22;51043;52.406;9.690;2023-04-25T05:04:16;6.80;99.90
64634;DHT22;51043;52.406;9.690;2023-04-25T05:07:03;6.80;99.90
64634;DHT22;51043;52.406;9.690;2023-04-25T05:09:31;6.90;99.90
64634;DHT22;51043;52.406;9.690;2023-04-25T05:12:08;6.70;99.90
64634;DHT22;51043;52.406;9.690;2023-04-25T05:14:48;6.90;99.90
64634;DHT22;51043;52.406;9.690;2023-04-25T05:17:39;6.90;99.90
64634;DHT22;51043;52.406;9.690;2023-04-25T05:20:27;6.90;99.90
64634;DHT22;51043;52.406;9.690;2023-04-25T05:23:20;6.90;99.90
64634;DHT22;51043;52.406;9.690;2023-04-25T05:26:12;6.90;99.90
64634;DHT22;51043;52.406;9.690;2023-04-25T05:28:55;7.00;99.90
64634;DHT22;51043;52.406;9.690;2023-04-25T05:31:55;7.00;99.90
64634;DHT22;51043;52.406;9.690;2023-04-25T05:34:23;7.10;99.90
64634;DHT22;51043;52.406;9.690;2023-04-25T05:36:55;7.30;99.90
64634;DHT22;51043;52.406;9.690;2023-04-25T05:39:26;7.50;99.90
64634;DHT22;51043;52.406;9.690;2023-04-25T05:42:22;7.50;99.90
64634;DHT22;51043;52.406;9.690;2023-04-25T05:45:05;7.50;99.90
64634;DHT22;51043;52.406;9.690;2023-04-25T05:47:41;7.40;99.90
64634;DHT22;51043;52.406;9.690;2023-04-25T05:50:27;7.40;99.90
64634;DHT22;51043;52.406;9.690;2023-04-25T05:53:02;7.50;99.90
64634;DHT22;51043;52.406;9.690;2023-04-25T05:55:39;7.50;99.90
64634;DHT22;51043;52.406;9.690;2023-04-25T05:58:25;7.60;99.90
64634;DHT22;51043;52.406;9.690;2023-04-25T06:00:58;7.60;99.90
64634;DHT22;51043;52.406;9.690;2023-04-25T06:03:26;7.60;99.90
64634;DHT22;51043;52.406;9.690;2023-04-25T06:05:56;7.70;99.90
64634;DHT22;51043;52.406;9.690;2023-04-25T06:08:25;7.70;99.90
64634;DHT22;51043;52.406;9.690;2023-04-25T06:10:55;7.70;99.90
64634;DHT22;51043;52.406;9.690;2023-04-25T06:13:23;7.60;99.90
64634;DHT22;51043;52.406;9.690;2023-04-25T06:15:58;7.70;99.90
64634;DHT22;51043;52.406;9.690;2023-04-25T06:18:26;7.80;99.90
64634;DHT22;51043;52.406;9.690;2023-04-25T06:20:57;7.90;99.90
64634;DHT22;51043;52.406;9.690;2023-04-25T06:23:25;7.80;99.90
64634;DHT22;51043;52.406;9.690;2023-04-25T06:26:02;7.80;99.90
64634;DHT22;51043;52.406;9.690;2023-04-25T06:28:32;7.90;99.90
64634;DHT22;51043;52.406;9.690;2023-04-25T06:31:00;8.00;99.90
64634;DHT22;51043;52.406;9.690;2023-04-25T06:33:28;8.10;99.90
64634;DHT22;51043;52.406;9.690;2023-04-25T06:35:57;8.20;99.90
64634;DHT22;51043;52.406;9.690;2023-04-25T06:38:27;8.20;99.90
64634;DHT22;51043;52.406;9.690;2023-04-25T06:40:56;8.30;99.90
64634;DHT22;51043;52.406;9.690;2023-04-25T06:43:29;8.30;99.90
64634;DHT22;51043;52.406;9.690;2023-04-25T06:46:23;8.50;99.90
64634;DHT22;51043;52.406;9.690;2023-04-25T06:48:53;8.70;99.90
64634;DHT22;51043;52.406;9.690;2023-04-25T06:51:24;8.70;99.90
64634;DHT22;51043;52.406;9.690;2023-04-25T06:53:57;8.70;99.90
64634;DHT22;51043;52.406;9.690;2023-04-25T06:56:31;8.80;99.90
64634;DHT22;51043;52.406;9.690;2023-04-25T06:59:08;8.70;99.90
64634;DHT22;51043;52.406;9.690;2023-04-25T07:01:38;8.50;99.90
64634;DHT22;51043;52.406;9.690;2023-04-25T07:04:15;8.30;99.90
64634;DHT22;51043;52.406;9.690;2023-04-25T07:06:48;8.30;99.90
64634;DHT22;51043;52.406;9.690;2023-04-25T07:09:20;8.50;99.90
64634;DHT22;51043;52.406;9.690;2023-04-25T07:11:50;8.40;99.90
64634;DHT22;51043;52.406;9.690;2023-04-25T07:14:19;8.10;99.90
64634;DHT22;51043;52.406;9.690;2023-04-25T07:16:47;8.00;99.90
64634;DHT22;51043;52.406;9.690;2023-04-25T07:19:16;7.90;99.90
64634;DHT22;51043;52.406;9.690;2023-04-25T07:21:44;8.00;99.90
64634;DHT22;51043;52.406;9.690;2023-04-25T07:24:12;8.00;99.90
64634;DHT22;51043;52.406;9.690;2023-04-25T07:26:45;8.10;99.90
64634;DHT22;51043;52.406;9.690;2023-04-25T07:29:27;8.20;99.90
64634;DHT22;51043;52.406;9.690;2023-04-25T07:31:58;8.20;99.90
64634;DHT22;51043;52.406;9.690;2023-04-25T07:34:26;8.30;99.90
64634;DHT22;51043;52.406;9.690;2023-04-25T07:36:54;8.30;99.90
64634;DHT22;51043;52.406;9.690;2023-04-25T07:39:32;8.40;99.90
64634;DHT22;51043;52.406;9.690;2023-04-25T07:42:00;8.50;99.90
64634;DHT22;51043;52.406;9.690;2023-04-25T07:44:30;8.50;99.90
64634;DHT22;51043;52.406;9.690;2023-04-25T07:46:59;8.60;99.90
64634;DHT22;51043;52.406;9.690;2023-04-25T07:49:30;8.70;99.90
64634;DHT22;51043;52.406;9.690;2023-04-25T07:51:58;8.80;99.90
64634;DHT22;51043;52.406;9.690;2023-04-25T07:54:26;8.80;99.90
64634;DHT22;51043;52.406;9.690;2023-04-25T07:57:00;8.90;99.90
64634;DHT22;51043;52.406;9.690;2023-04-25T07:59:31;9.00;99.90
64634;DHT22;51043;52.406;9.690;2023-04-25T08:02:02;9.10;99.90
64634;DHT22;51043;52.406;9.690;2023-04-25T08:04:30;9.20;99.90
64634;DHT22;51043;52.406;9.690;2023-04-25T08:07:02;9.20;99.90
64634;DHT22;51043;52.406;9.690;2023-04-25T08:09:37;9.40;99.90
64634;DHT22;51043;52.406;9.690;2023-04-25T08:12:10;9.70;99.90
64634;DHT22;51043;52.406;9.690;2023-04-25T08:14:41;9.90;99.90
64634;DHT22;51043;52.406;9.690;2023-04-25T08:17:09;9.80;99.90
64634;DHT22;51043;52.406;9.690;2023-04-25T08:19:40;11.10;99.90
64634;DHT22;51043;52.406;9.690;2023-04-25T08:22:15;12.50;99.90
64634;DHT22;51043;52.406;9.690;2023-04-25T08:24:51;12.80;99.90
64634;DHT22;51043;52.406;9.690;2023-04-25T08:27:19;13.60;97.90
64634;DHT22;51043;52.406;9.690;2023-04-25T08:29:49;14.00;94.10
64634;DHT22;51043;52.406;9.690;2023-04-25T08:32:19;13.90;92.90
64634;DHT22;51043;52.406;9.690;2023-04-25T08:35:14;13.90;92.40
64634;DHT22;51043;52.406;9.690;2023-04-25T08:37:44;14.10;86.70
64634;DHT22;51043;52.406;9.690;2023-04-25T08:40:15;14.30;83.00
64634;DHT22;51043;52.406;9.690;2023-04-25T08:42:58;13.70;84.40
64634;DHT22;51043;52.406;9.690;2023-04-25T08:45:28;13.00;88.40
64634;DHT22;51043;52.406;9.690;2023-04-25T08:48:00;12.10;87.90
64634;DHT22;51043;52.406;9.690;2023-04-25T08:50:29;11.20;92.60
64634;DHT22;51043;52.406;9.690;2023-04-25T08:53:04;10.50;95.10
64634;DHT22;51043;52.406;9.690;2023-04-25T08:55:37;10.00;98.80
64634;DHT22;51043;52.406;9.690;2023-04-25T08:58:11;9.80;99.90
64634;DHT22;51043;52.406;9.690;2023-04-25T09:00:40;9.60;99.90
64634;DHT22;51043;52.406;9.690;2023-04-25T09:03:09;9.50;99.90
64634;DHT22;51043;52.406;9.690;2023-04-25T09:05:39;9.30;99.90
64634;DHT22;51043;52.406;9.690;2023-04-25T09:08:09;9.60;99.90
64634;DHT22;51043;52.406;9.690;2023-04-25T09:10:39;9.70;99.90
64634;DHT22;51043;52.406;9.690;2023-04-25T09:13:09;10.70;96.10
64634;DHT22;51043;52.406;9.690;2023-04-25T09:16:00;12.10;91.10
64634;DHT22;51043;52.406;9.690;2023-04-25T09:18:37;13.10;82.90
64634;DHT22;51043;52.406;9.690;2023-04-25T09:21:07;13.30;76.60
64634;DHT22;51043;52.406;9.690;2023-04-25T09:23:40;14.10;75.70
64634;DHT22;51043;52.406;9.690;2023-04-25T09:26:08;15.00;66.20
64634;DHT22;51043;52.406;9.690;2023-04-25T09:28:36;15.20;64.40
64634;DHT22;51043;52.406;9.690;2023-04-25T09:31:09;15.30;60.90
64634;DHT22;51043;52.406;9.690;2023-04-25T09:33:45;15.70;62.90
64634;DHT22;51043;52.406;9.690;2023-04-25T09:36:14;16.70;57.50
64634;DHT22;51043;52.406;9.690;2023-04-25T09:39:02;16.60;54.80
64634;DHT22;51043;52.406;9.690;2023-04-25T09:41:37;15.90;54.60
64634;DHT22;51043;52.406;9.690;2023-04-25T09:44:05;15.40;54.00
64634;DHT22;51043;52.406;9.690;2023-04-25T09:46:38;15.60;56.10
64634;DHT22;51043;52.406;9.690;2023-04-25T09:49:16;15.60;54.60
64634;DHT22;51043;52.406;9.690;2023-04-25T09:51:57;14.80;55.70
64634;DHT22;51043;52.406;9.690;2023-04-25T09:54:35;14.50;56.00
64634;DHT22;51043;52.406;9.690;2023-04-25T09:57:12;15.00;58.60
64634;DHT22;51043;52.406;9.690;2023-04-25T09:59:44;14.70;55.20
64634;DHT22;51043;52.406;9.690;2023-04-25T10:02:18;13.50;57.90
64634;DHT22;51043;52.406;9.690;2023-04-25T10:04:50;13.00;60.70
64634;DHT22;51043;52.406;9.690;2023-04-25T10:07:34;12.60;61.40
64634;DHT22;51043;52.406;9.690;2023-04-25T10:10:08;12.00;62.70
64634;DHT22;51043;52.406;9.690;2023-04-25T10:12:42;11.20;63.70
64634;DHT22;51043;52.406;9.690;2023-04-25T10:15:11;10.70;67.80
64634;DHT22;51043;52.406;9.690;2023-04-25T10:17:41;10.20;70.10
64634;DHT22;51043;52.406;9.690;2023-04-25T10:20:13;9.90;74.30
64634;DHT22;51043;52.406;9.690;2023-04-25T10:22:43;9.90;77.70
64634;DHT22;51043;52.406;9.690;2023-04-25T10:25:14;10.00;77.10
64634;DHT22;51043;52.406;9.690;2023-04-25T10:27:43;10.10;79.70
64634;DHT22;51043;52.406;9.690;2023-04-25T10:30:14;10.30;78.60
64634;DHT22;51043;52.406;9.690;2023-04-25T10:32:44;10.30;80.40
64634;DHT22;51043;52.406;9.690;2023-04-25T10:35:14;10.40;83.50
64634;DHT22;51043;52.406;9.690;2023-04-25T10:37:57;10.40;88.60
64634;DHT22;51043;52.406;9.690;2023-04-25T10:40:28;10.60;83.80
64634;DHT22;51043;52.406;9.690;2023-04-25T10:43:33;10.70;81.50
64634;DHT22;51043;52.406;9.690;2023-04-25T10:46:03;10.50;83.40
64634;DHT22;51043;52.406;9.690;2023-04-25T10:48:48;10.50;88.60
64634;DHT22;51043;52.406;9.690;2023-04-25T10:51:19;10.60;87.60
64634;DHT22;51043;52.406;9.690;2023-04-25T10:53:56;10.80;89.30
64634;DHT22;51043;52.406;9.690;2023-04-25T10:56:27;10.90;82.60
64634;DHT22;51043;52.406;9.690;2023-04-25T10:59:09;10.60;82.10
64634;DHT22;51043;52.406;9.690;2023-04-25T11:01:39;10.30;82.70
64634;DHT22;51043;52.406;9.690;2023-04-25T11:04:21;10.40;84.90
64634;DHT22;51043;52.406;9.690;2023-04-25T11:07:03;10.70;82.40
64634;DHT22;51043;52.406;9.690;2023-04-25T11:09:33;11.80;78.10
64634;DHT22;51043;52.406;9.690;2023-04-25T11:12:02;13.40;66.20
64634;DHT22;51043;52.406;9.690;2023-04-25T11:14:30;14.50;60.90
64634;DHT22;51043;52.406;9.690;2023-04-25T11:16:59;15.30;57.60
64634;DHT22;51043;52.406;9.690;2023-04-25T11:19:29;16.50;55.10
64634;DHT22;51043;52.406;9.690;2023-04-25T11:21:58;16.50;51.90
64634;DHT22;51043;52.406;9.690;2023-04-25T11:24:28;14.70;55.20
64634;DHT22;51043;52.406;9.690;2023-04-25T11:26:58;13.20;61.60
64634;DHT22;51043;52.406;9.690;2023-04-25T11:29:31;12.20;65.20
64634;DHT22;51043;52.406;9.690;2023-04-25T11:32:00;11.50;70.40
64634;DHT22;51043;52.406;9.690;2023-04-25T11:34:31;10.60;79.40
64634;DHT22;51043;52.406;9.690;2023-04-25T11:37:00;9.80;92.80
64634;DHT22;51043;52.406;9.690;2023-04-25T11:39:29;8.90;99.90
64634;DHT22;51043;52.406;9.690;2023-04-25T11:41:57;8.40;99.90
64634;DHT22;51043;52.406;9.690;2023-04-25T11:44:32;8.10;99.90
64634;DHT22;51043;52.406;9.690;2023-04-25T11:47:00;8.00;99.90
64634;DHT22;51043;52.406;9.690;2023-04-25T11:49:31;8.00;99.90
64634;DHT22;51043;52.406;9.690;2023-04-25T11:51:59;8.20;99.90
64634;DHT22;51043;52.406;9.690;2023-04-25T11:54:28;8.50;99.90
64634;DHT22;51043;52.406;9.690;2023-04-25T11:56:56;9.00;99.90
64634;DHT22;51043;52.406;9.690;2023-04-25T11:59:28;9.40;99.90
64634;DHT22;51043;52.406;9.690;2023-04-25T12:01:56;9.70;99.90
64634;DHT22;51043;52.406;9.690;2023-04-25T12:04:31;9.90;99.90
64634;DHT22;51043;52.406;9.690;2023-04-25T12:07:00;10.30;99.90
64634;DHT22;51043;52.406;9.690;2023-04-25T12:09:29;10.80;99.90
64634;DHT22;51043;52.406;9.690;2023-04-25T12:11:59;11.80;99.90
64634;DHT22;51043;52.406;9.690;2023-04-25T12:14:30;13.00;91.10
64634;DHT22;51043;52.406;9.690;2023-04-25T12:17:03;13.60;72.80
64634;DHT22;51043;52.406;9.690;2023-04-25T12:19:36;14.20;70.40
64634;DHT22;51043;52.406;9.690;2023-04-25T12:22:20;15.90;61.90
64634;DHT22;51043;52.406;9.690;2023-04-25T12:24:48;17.20;55.70
64634;DHT22;51043;52.406;9.690;2023-04-25T12:27:17;17.70;51.80
64634;DHT22;51043;52.406;9.690;2023-04-25T12:29:51;16.30;51.60
64634;DHT22;51043;52.406;9.690;2023-04-25T12:32:20;14.50;55.20
64634;DHT22;51043;52.406;9.690;2023-04-25T12:34:51;13.00;58.40
64634;DHT22;51043;52.406;9.690;2023-04-25T12:37:19;11.90;65.40
64634;DHT22;51043;52.406;9.690;2023-04-25T12:39:47;10.90;73.90
64634;DHT22;51043;52.406;9.690;2023-04-25T12:42:15;10.20;79.40
64634;DHT22;51043;52.406;9.690;2023-04-25T12:44:43;9.70;89.30
64634;DHT22;51043;52.406;9.690;2023-04-25T12:47:13;9.20;92.60
64634;DHT22;51043;52.406;9.690;2023-04-25T12:49:41;9.30;96.50
64634;DHT22;51043;52.406;9.690;2023-04-25T12:52:10;9.50;91.30
64634;DHT22;51043;52.406;9.690;2023-04-25T12:54:38;9.50;90.20
64634;DHT22;51043;52.406;9.690;2023-04-25T12:57:06;9.40;91.50
64634;DHT22;51043;52.406;9.690;2023-04-25T12:59:35;9.30;94.10
64634;DHT22;51043;52.406;9.690;2023-04-25T13:02:03;9.30;97.80
64634;DHT22;51043;52.406;9.690;2023-04-25T13:04:31;9.30;98.10
64634;DHT22;51043;52.406;9.690;2023-04-25T13:07:02;9.10;97.90
64634;DHT22;51043;52.406;9.690;2023-04-25T13:09:31;9.00;99.30
64634;DHT22;51043;52.406;9.690;2023-04-25T13:12:02;8.80;99.90
64634;DHT22;51043;52.406;9.690;2023-04-25T13:14:30;8.70;99.90
64634;DHT22;51043;52.406;9.690;2023-04-25T13:16:59;8.50;99.90
64634;DHT22;51043;52.406;9.690;2023-04-25T13:19:29;8.30;99.90
64634;DHT22;51043;52.406;9.690;2023-04-25T13:21:58;8.20;99.90
64634;DHT22;51043;52.406;9.690;2023-04-25T13:24:27;8.20;99.90
64634;DHT22;51043;52.406;9.690;2023-04-25T13:26:56;8.30;99.90
64634;DHT22;51043;52.406;9.690;2023-04-25T13:29:24;8.50;99.90
64634;DHT22;51043;52.406;9.690;2023-04-25T13:31:52;8.50;99.90
64634;DHT22;51043;52.406;9.690;2023-04-25T13:34:20;8.60;99.90
64634;DHT22;51043;52.406;9.690;2023-04-25T13:36:48;8.90;99.90
64634;DHT22;51043;52.406;9.690;2023-04-25T13:39:16;9.50;99.90
64634;DHT22;51043;52.406;9.690;2023-04-25T13:41:44;11.40;99.90
64634;DHT22;51043;52.406;9.690;2023-04-25T13:44:14;13.50;99.90
64634;DHT22;51043;52.406;9.690;2023-04-25T13:46:42;14.20;93.70
64634;DHT22;51043;52.406;9.690;2023-04-25T13:49:11;13.40;93.20
64634;DHT22;51043;52.406;9.690;2023-04-25T13:51:40;12.30;95.10
64634;DHT22;51043;52.406;9.690;2023-04-25T13:54:08;11.30;99.90
64634;DHT22;51043;52.406;9.690;2023-04-25T13:56:37;9.80;99.90
64634;DHT22;51043;52.406;9.690;2023-04-25T13:59:05;8.80;99.90
64634;DHT22;51043;52.406;9.690;2023-04-25T14:01:34;8.20;99.90
64634;DHT22;51043;52.406;9.690;2023-04-25T14:04:03;7.80;99.90
64634;DHT22;51043;52.406;9.690;2023-04-25T14:06:31;7.80;99.90
64634;DHT22;51043;52.406;9.690;2023-04-25T14:09:01;8.70;99.90
64634;DHT22;51043;52.406;9.690;2023-04-25T14:11:31;9.90;99.90
64634;DHT22;51043;52.406;9.690;2023-04-25T14:13:59;10.50;99.90
64634;DHT22;51043;52.406;9.690;2023-04-25T14:16:27;10.70;99.90
64634;DHT22;51043;52.406;9.690;2023-04-25T14:18:57;10.70;99.90
64634;DHT22;51043;52.406;9.690;2023-04-25T14:21:29;10.90;99.90
64634;DHT22;51043;52.406;9.690;2023-04-25T14:24:03;11.70;99.90
64634;DHT22;51043;52.406;9.690;2023-04-25T14:26:31;12.90;99.90
64634;DHT22;51043;52.406;9.690;2023-04-25T14:29:00;13.60;97.80
64634;DHT22;51043;52.406;9.690;2023-04-25T14:31:29;13.10;97.60
64634;DHT22;51043;52.406;9.690;2023-04-25T14:33:58;12.30;99.90
64634;DHT22;51043;52.406;9.690;2023-04-25T14:36:29;11.80;99.90
64634;DHT22;51043;52.406;9.690;2023-04-25T14:38:58;11.40;99.90
64634;DHT22;51043;52.406;9.690;2023-04-25T14:41:27;11.20;99.90
64634;DHT22;51043;52.406;9.690;2023-04-25T14:43:56;11.20;99.90
64634;DHT22;51043;52.406;9.690;2023-04-25T14:46:24;11.30;99.90
64634;DHT22;51043;52.406;9.690;2023-04-25T14:48:53;11.30;99.90
64634;DHT22;51043;52.406;9.690;2023-04-25T14:51:24;11.40;99.90
64634;DHT22;51043;52.406;9.690;2023-04-25T14:53:53;11.40;99.00
64634;DHT22;51043;52.406;9.690;2023-04-25T14:56:21;11.10;98.70
64634;DHT22;51043;52.406;9.690;2023-04-25T14:58:49;10.60;99.90
64634;DHT22;51043;52.406;9.690;2023-04-25T15:01:17;10.10;99.90
64634;DHT22;51043;52.406;9.690;2023-04-25T15:03:47;9.80;99.90
64634;DHT22;51043;52.406;9.690;2023-04-25T15:06:16;9.60;99.90
64634;DHT22;51043;52.406;9.690;2023-04-25T15:08:45;9.30;99.90
64634;DHT22;51043;52.406;9.690;2023-04-25T15:11:13;8.80;99.90
64634;DHT22;51043;52.406;9.690;2023-04-25T15:13:41;8.10;99.90
64634;DHT22;51043;52.406;9.690;2023-04-25T15:16:10;7.50;99.90
64634;DHT22;51043;52.406;9.690;2023-04-25T15:18:38;7.10;99.90
64634;DHT22;51043;52.406;9.690;2023-04-25T15:21:07;7.20;99.90
64634;DHT22;51043;52.406;9.690;2023-04-25T15:23:35;7.40;99.90
64634;DHT22;51043;52.406;9.690;2023-04-25T15:26:04;7.90;99.90
64634;DHT22;51043;52.406;9.690;2023-04-25T15:28:32;8.20;99.90
64634;DHT22;51043;52.406;9.690;2023-04-25T15:31:01;8.50;99.90
64634;DHT22;51043;52.406;9.690;2023-04-25T15:33:29;8.60;99.90
64634;DHT22;51043;52.406;9.690;2023-04-25T15:35:57;8.60;99.90
64634;DHT22;51043;52.406;9.690;2023-04-25T15:38:33;8.60;99.90
64634;DHT22;51043;52.406;9.690;2023-04-25T15:41:01;8.80;99.90
64634;DHT22;51043;52.406;9.690;2023-04-25T15:43:31;8.70;99.90
64634;DHT22;51043;52.406;9.690;2023-04-25T15:46:02;8.70;99.90
64634;DHT22;51043;52.406;9.690;2023-04-25T15:48:30;8.70;99.90
64634;DHT22;51043;52.406;9.690;2023-04-25T15:50:59;8.90;99.90
64634;DHT22;51043;52.406;9.690;2023-04-25T15:53:29;8.90;99.90
64634;DHT22;51043;52.406;9.690;2023-04-25T15:55:57;8.90;99.90
64634;DHT22;51043;52.406;9.690;2023-04-25T15:58:28;8.50;99.90
64634;DHT22;51043;52.406;9.690;2023-04-25T16:00:57;7.70;99.90
64634;DHT22;51043;52.406;9.690;2023-04-25T16:03:31;7.10;99.90
64634;DHT22;51043;52.406;9.690;2023-04-25T16:06:02;6.90;99.90
64634;DHT22;51043;52.406;9.690;2023-04-25T16:08:33;6.90;99.90
64634;DHT22;51043;52.406;9.690;2023-04-25T16:11:02;7.20;99.90